createdAt,value
2022-07-31T00:01:32.513Z,1.10
2022-07-31T00:04:00.816Z,1.10
2022-07-31T00:06:29.009Z,1.30
2022-07-31T00:08:55.809Z,1.17
2022-07-31T00:11:25.757Z,1.20
2022-07-31T00:13:58.173Z,1.30
2022-07-31T00:16:26.140Z,1.20
2022-07-31T00:18:53.020Z,1.00
2022-07-31T00:21:20.304Z,1.30
2022-07-31T00:23:47.550Z,1.30
2022-07-31T00:26:14.801Z,1.10
2022-07-31T00:28:41.680Z,1.00
2022-07-31T00:31:09.380Z,1.10
2022-07-31T00:33:38.084Z,1.40
2022-07-31T00:36:05.149Z,1.30
2022-07-31T00:38:32.374Z,1.37
2022-07-31T00:40:59.554Z,1.20
2022-07-31T00:43:27.519Z,1.37
2022-07-31T00:45:59.603Z,1.40
2022-07-31T00:48:27.747Z,1.20
2022-07-31T00:50:55.196Z,1.27
2022-07-31T00:53:22.745Z,0.90
2022-07-31T00:55:51.926Z,1.30
2022-07-31T00:58:20.045Z,1.70
2022-07-31T01:00:47.767Z,1.30
2022-07-31T01:03:14.770Z,1.33
2022-07-31T01:05:41.931Z,1.07
2022-07-31T01:08:08.860Z,1.30
2022-07-31T01:10:46.392Z,1.30
2022-07-31T01:13:29.285Z,1.10
2022-07-31T01:15:59.506Z,1.40
2022-07-31T01:18:27.708Z,1.30
2022-07-31T01:20:55.639Z,1.37
2022-07-31T01:23:50.994Z,1.27
2022-07-31T01:26:43.620Z,1.40
2022-07-31T01:29:16.499Z,1.60
2022-07-31T01:31:48.280Z,1.30
2022-07-31T01:34:46.671Z,1.70
2022-07-31T01:37:21.065Z,1.20
2022-07-31T01:39:52.083Z,1.87
2022-07-31T01:42:19.191Z,1.23
2022-07-31T01:44:47.943Z,1.53
2022-07-31T01:47:17.164Z,1.50
2022-07-31T01:49:46.193Z,1.73
2022-07-31T01:52:14.339Z,1.47
2022-07-31T01:54:42.910Z,1.37
2022-07-31T01:57:09.696Z,1.77
2022-07-31T01:59:36.878Z,1.40
2022-07-31T02:02:04.920Z,1.50
2022-07-31T02:04:32.601Z,1.57
2022-07-31T02:07:03.284Z,1.40
2022-07-31T02:09:31.180Z,1.30
2022-07-31T02:12:00.850Z,1.33
2022-07-31T02:14:28.503Z,1.60
2022-07-31T02:16:56.349Z,1.30
2022-07-31T02:19:23.331Z,1.60
2022-07-31T02:21:50.542Z,1.40
2022-07-31T02:24:19.956Z,1.40
2022-07-31T02:26:47.170Z,1.50
2022-07-31T02:29:19.724Z,1.60
2022-07-31T02:32:02.097Z,1.13
2022-07-31T02:34:30.674Z,1.60
2022-07-31T02:36:57.524Z,1.20
2022-07-31T02:39:27.557Z,1.20
2022-07-31T02:41:58.178Z,1.47
2022-07-31T02:44:26.972Z,1.33
2022-07-31T02:46:56.106Z,1.27
2022-07-31T02:49:24.967Z,1.40
2022-07-31T02:51:52.547Z,1.00
2022-07-31T02:54:19.359Z,1.30
2022-07-31T02:56:46.375Z,1.37
2022-07-31T02:59:13.527Z,1.20
2022-07-31T03:01:41.049Z,1.40
2022-07-31T03:04:10.145Z,1.23
2022-07-31T03:06:38.372Z,1.13
2022-07-31T03:09:06.209Z,1.43
2022-07-31T03:11:36.360Z,1.40
2022-07-31T03:14:03.625Z,1.57
2022-07-31T03:16:30.436Z,1.10
2022-07-31T03:18:58.167Z,1.50
2022-07-31T03:21:25.311Z,1.30
2022-07-31T03:23:52.210Z,1.40
2022-07-31T03:26:19.095Z,1.27
2022-07-31T03:28:46.307Z,1.57
2022-07-31T03:31:13.105Z,1.10
2022-07-31T03:33:39.928Z,1.30
2022-07-31T03:36:09.519Z,1.30
2022-07-31T03:38:41.374Z,1.23
2022-07-31T03:41:11.585Z,0.93
2022-07-31T03:43:46.845Z,1.30
2022-07-31T03:46:16.468Z,1.30
2022-07-31T03:48:43.272Z,1.10
2022-07-31T03:51:10.586Z,1.30
2022-07-31T03:53:38.656Z,1.10
2022-07-31T03:56:05.732Z,1.47
2022-07-31T03:58:32.542Z,1.30
2022-07-31T04:00:59.854Z,1.50
2022-07-31T04:03:30.871Z,1.33
2022-07-31T04:05:58.334Z,1.30
2022-07-31T04:08:25.098Z,1.30
2022-07-31T04:10:52.611Z,1.33
2022-07-31T04:13:19.654Z,1.10
2022-07-31T04:15:46.408Z,1.20
2022-07-31T04:18:13.542Z,1.20
2022-07-31T04:20:40.324Z,1.40
2022-07-31T04:23:07.302Z,1.53
2022-07-31T04:25:35.364Z,1.23
2022-07-31T04:28:02.596Z,1.10
2022-07-31T04:30:29.396Z,1.40
2022-07-31T04:32:59.313Z,1.43
2022-07-31T04:35:26.082Z,1.40
2022-07-31T04:37:52.884Z,1.33
2022-07-31T04:40:19.708Z,1.30
2022-07-31T04:42:46.494Z,1.30
2022-07-31T04:45:14.697Z,1.50
2022-07-31T04:47:41.957Z,1.13
2022-07-31T04:50:09.347Z,1.30
2022-07-31T04:52:36.565Z,1.30
2022-07-31T04:55:03.477Z,1.40
2022-07-31T04:57:30.254Z,1.10
2022-07-31T04:59:59.339Z,1.27
2022-07-31T05:02:27.771Z,1.00
2022-07-31T05:04:56.739Z,1.20
2022-07-31T05:07:28.379Z,1.20
2022-07-31T05:09:57.196Z,1.10
2022-07-31T05:12:24.403Z,1.10
2022-07-31T05:14:51.192Z,1.13
2022-07-31T05:17:18.306Z,1.47
2022-07-31T05:19:46.435Z,1.10
2022-07-31T05:22:13.223Z,1.20
2022-07-31T05:24:43.086Z,1.20
2022-07-31T05:27:10.616Z,1.30
2022-07-31T05:29:37.851Z,1.53
2022-07-31T05:32:05.709Z,1.27
2022-07-31T05:34:32.527Z,1.17
2022-07-31T05:37:02.135Z,1.03
2022-07-31T05:39:29.606Z,1.20
2022-07-31T05:41:56.421Z,1.17
2022-07-31T05:44:24.821Z,1.37
2022-07-31T05:49:18.469Z,1.20
2022-07-31T05:51:45.789Z,1.30
2022-07-31T05:54:13.097Z,1.30
2022-07-31T05:56:40.337Z,1.17
2022-07-31T05:59:07.414Z,1.10
2022-07-31T06:01:34.578Z,1.10
2022-07-31T06:04:02.612Z,1.40
2022-07-31T06:06:29.420Z,1.30
2022-07-31T06:08:59.437Z,1.20
2022-07-31T06:11:30.854Z,1.20
2022-07-31T06:13:58.454Z,1.20
2022-07-31T06:16:25.700Z,1.13
2022-07-31T06:18:52.566Z,1.37
2022-07-31T06:23:45.056Z,1.30
2022-07-31T06:26:13.509Z,1.13
2022-07-31T06:28:49.311Z,1.30
2022-07-31T06:31:18.038Z,1.23
2022-07-31T06:33:48.343Z,0.93
2022-07-31T06:36:17.497Z,1.30
2022-07-31T06:38:44.735Z,1.30
2022-07-31T06:41:34.849Z,1.30
2022-07-31T06:44:01.701Z,1.20
2022-07-31T06:46:28.600Z,1.20
2022-07-31T06:48:55.585Z,1.20
2022-07-31T06:51:32.732Z,1.30
2022-07-31T06:54:03.423Z,1.37
2022-07-31T06:56:30.983Z,1.20
2022-07-31T06:58:57.816Z,1.20
2022-07-31T07:01:34.022Z,1.30
2022-07-31T07:04:02.074Z,1.10
2022-07-31T07:06:28.875Z,1.10
2022-07-31T07:08:56.106Z,1.30
2022-07-31T07:11:24.283Z,1.10
2022-07-31T07:13:52.665Z,1.30
2022-07-31T07:16:20.343Z,1.20
2022-07-31T07:18:47.615Z,1.30
2022-07-31T07:21:15.112Z,1.20
2022-07-31T07:23:47.296Z,1.00
2022-07-31T07:26:14.111Z,1.27
2022-07-31T07:28:42.179Z,1.30
2022-07-31T07:31:08.931Z,1.03
2022-07-31T07:33:41.167Z,1.20
2022-07-31T07:36:23.499Z,1.47
2022-07-31T07:38:53.876Z,1.47
2022-07-31T07:41:23.800Z,1.23
2022-07-31T07:43:52.424Z,1.23
2022-07-31T07:46:21.009Z,1.40
2022-07-31T07:48:49.239Z,1.20
2022-07-31T07:51:19.545Z,1.33
2022-07-31T07:53:47.713Z,1.40
2022-07-31T07:56:14.674Z,1.60
2022-07-31T07:58:41.533Z,1.33
2022-07-31T08:01:08.438Z,1.27
2022-07-31T08:03:49.763Z,1.27
2022-07-31T08:06:21.069Z,1.20
2022-07-31T08:08:47.923Z,1.27
2022-07-31T08:11:17.602Z,1.23
2022-07-31T08:13:50.209Z,1.30
2022-07-31T08:16:21.088Z,1.43
2022-07-31T08:18:49.079Z,1.40
2022-07-31T08:21:15.873Z,1.10
2022-07-31T08:23:42.934Z,1.40
2022-07-31T08:26:09.757Z,1.30
2022-07-31T08:28:36.636Z,1.50
2022-07-31T08:31:03.507Z,1.30
2022-07-31T08:33:33.441Z,1.30
2022-07-31T08:36:00.995Z,1.47
2022-07-31T08:38:28.748Z,1.30
2022-07-31T08:40:56.897Z,1.20
2022-07-31T08:44:02.030Z,1.37
2022-07-31T08:46:11.774Z,1.40
2022-07-31T08:48:44.153Z,1.10
2022-07-31T08:51:13.877Z,1.30
2022-07-31T08:53:41.136Z,1.50
2022-07-31T08:56:08.444Z,1.10
2022-07-31T08:58:39.384Z,1.07
2022-07-31T09:01:11.491Z,1.20
2022-07-31T09:03:38.678Z,1.30
2022-07-31T09:06:06.245Z,1.50
2022-07-31T09:08:33.631Z,1.40
2022-07-31T09:11:10.192Z,1.40
2022-07-31T09:13:37.695Z,1.50
2022-07-31T09:16:05.913Z,1.27
2022-07-31T09:18:32.815Z,1.50
2022-07-31T09:21:07.441Z,1.27
2022-07-31T09:23:44.151Z,1.23
2022-07-31T09:26:10.978Z,1.60
2022-07-31T09:28:39.146Z,1.30
2022-07-31T09:31:07.233Z,1.40
2022-07-31T09:33:42.305Z,1.30
2022-07-31T09:36:12.590Z,1.50
2022-07-31T09:38:41.214Z,1.20
2022-07-31T09:41:55.442Z,1.30
2022-07-31T09:44:10.614Z,1.30
2022-07-31T09:46:45.978Z,1.70
2022-07-31T09:49:12.999Z,1.60
2022-07-31T09:51:44.497Z,1.30
2022-07-31T09:54:22.248Z,1.30
2022-07-31T09:56:50.369Z,1.20
2022-07-31T09:59:17.514Z,1.40
2022-07-31T10:01:48.767Z,1.13
2022-07-31T10:04:19.513Z,1.73
2022-07-31T10:06:47.863Z,1.60
2022-07-31T10:09:15.082Z,1.47
2022-07-31T10:11:42.689Z,1.23
2022-07-31T10:14:12.574Z,1.10
2022-07-31T10:16:40.298Z,1.30
2022-07-31T10:19:13.185Z,1.10
2022-07-31T10:21:44.041Z,1.20
2022-07-31T10:24:12.727Z,1.60
2022-07-31T10:26:59.723Z,1.37
2022-07-31T10:29:26.982Z,1.40
2022-07-31T10:31:53.867Z,1.40
2022-07-31T10:34:21.481Z,1.27
2022-07-31T10:36:49.048Z,1.53
2022-07-31T10:39:24.913Z,1.80
2022-07-31T10:42:06.912Z,1.60
2022-07-31T10:45:10.339Z,1.60
2022-07-31T10:47:37.205Z,1.40
2022-07-31T10:50:04.419Z,1.37
2022-07-31T10:52:37.914Z,1.60
2022-07-31T10:55:25.634Z,1.50
2022-07-31T10:57:56.224Z,1.90
2022-07-31T11:00:28.386Z,1.90
2022-07-31T11:02:57.313Z,2.00
2022-07-31T11:05:28.219Z,1.60
2022-07-31T11:08:04.261Z,1.70
2022-07-31T11:10:31.328Z,2.83
2022-07-31T11:13:17.729Z,2.10
2022-07-31T11:15:44.621Z,2.10
2022-07-31T11:18:26.322Z,1.90
2022-07-31T11:21:17.416Z,2.03
2022-07-31T11:24:02.325Z,2.70
2022-07-31T11:26:32.403Z,2.63
2022-07-31T11:30:00.804Z,1.70
2022-07-31T11:31:47.465Z,1.70
2022-07-31T11:34:14.244Z,1.33
2022-07-31T11:36:43.190Z,1.50
2022-07-31T11:39:12.630Z,1.60
2022-07-31T11:41:44.048Z,1.63
2022-07-31T11:44:24.300Z,1.50
2022-07-31T11:46:54.337Z,1.70
2022-07-31T11:49:22.393Z,1.50
2022-07-31T11:52:30.941Z,2.23
2022-07-31T11:55:30.686Z,1.60
2022-07-31T11:57:58.042Z,1.70
2022-07-31T12:00:26.993Z,1.20
2022-07-31T12:02:57.440Z,1.70
2022-07-31T12:05:38.994Z,1.60
2022-07-31T12:08:07.590Z,1.70
2022-07-31T12:10:34.531Z,1.50
2022-07-31T12:13:01.923Z,1.40
2022-07-31T12:15:29.934Z,1.60
2022-07-31T12:18:05.603Z,2.20
2022-07-31T12:20:36.755Z,1.73
2022-07-31T12:23:05.874Z,1.83
2022-07-31T12:25:46.608Z,2.30
2022-07-31T12:28:15.472Z,2.03
2022-07-31T12:30:43.257Z,1.60
2022-07-31T12:33:12.195Z,1.50
2022-07-31T12:35:55.706Z,1.90
2022-07-31T12:38:40.798Z,1.97
2022-07-31T12:41:12.830Z,1.73
2022-07-31T12:43:50.416Z,2.47
2022-07-31T12:46:19.533Z,1.90
2022-07-31T12:48:48.133Z,1.80
2022-07-31T12:51:16.832Z,1.70
2022-07-31T12:53:44.360Z,1.87
2022-07-31T12:56:12.235Z,1.70
2022-07-31T12:58:39.107Z,1.47
2022-07-31T13:01:11.820Z,1.60
2022-07-31T13:03:46.236Z,1.53
2022-07-31T13:06:14.022Z,1.50
2022-07-31T13:08:41.007Z,1.57
2022-07-31T13:11:07.831Z,1.80
2022-07-31T13:13:36.392Z,2.03
2022-07-31T13:16:03.212Z,1.80
2022-07-31T13:18:30.361Z,1.70
2022-07-31T13:20:57.698Z,1.70
2022-07-31T13:23:26.231Z,1.70
2022-07-31T13:25:53.280Z,1.60
2022-07-31T13:28:20.060Z,1.60
2022-07-31T13:30:50.000Z,1.80
2022-07-31T13:33:20.055Z,1.60
2022-07-31T13:35:48.559Z,1.40
2022-07-31T13:38:15.788Z,1.40
2022-07-31T13:41:00.971Z,1.50
2022-07-31T13:43:28.469Z,1.57
2022-07-31T13:46:02.848Z,1.53
2022-07-31T13:48:30.668Z,1.70
2022-07-31T13:50:57.583Z,1.60
2022-07-31T13:53:24.469Z,1.50
2022-07-31T13:55:51.271Z,1.80
2022-07-31T13:58:24.435Z,1.70
2022-07-31T14:00:51.434Z,1.43
2022-07-31T14:03:21.173Z,1.30
2022-07-31T14:05:48.823Z,1.40
2022-07-31T14:08:33.216Z,2.13
2022-07-31T14:11:03.419Z,1.70
2022-07-31T14:13:30.210Z,1.47
2022-07-31T14:15:57.434Z,1.40
2022-07-31T14:18:25.684Z,1.60
2022-07-31T14:20:52.475Z,1.50
2022-07-31T14:23:20.333Z,1.40
2022-07-31T14:25:54.683Z,1.50
2022-07-31T14:28:21.585Z,1.67
2022-07-31T14:30:49.974Z,1.40
2022-07-31T14:33:16.799Z,1.50
2022-07-31T14:35:43.584Z,1.60
2022-07-31T14:38:10.378Z,1.30
2022-07-31T14:40:38.407Z,1.70
2022-07-31T14:43:05.192Z,1.60
2022-07-31T14:45:31.980Z,1.70
2022-07-31T14:48:06.616Z,1.20
2022-07-31T14:50:33.421Z,1.67
2022-07-31T14:53:00.954Z,1.95
2022-07-31T14:55:29.087Z,1.63
2022-07-31T14:57:57.149Z,1.40
2022-07-31T15:00:24.043Z,1.88
2022-07-31T15:02:50.829Z,1.52
2022-07-31T15:06:37.653Z,1.77
2022-07-31T15:08:07.181Z,1.00
2022-07-31T15:10:34.741Z,1.50
2022-07-31T15:13:01.556Z,1.90
2022-07-31T15:15:28.509Z,1.92
2022-07-31T15:17:55.862Z,1.58
2022-07-31T15:20:32.674Z,1.60
2022-07-31T15:22:59.728Z,1.92
2022-07-31T15:25:26.584Z,1.48
2022-07-31T15:27:53.848Z,1.30
2022-07-31T15:30:21.617Z,1.52
2022-07-31T15:32:57.684Z,1.85
2022-07-31T15:35:24.582Z,1.30
2022-07-31T15:37:51.411Z,1.63
2022-07-31T15:40:18.216Z,1.40
2022-07-31T15:42:48.580Z,1.70
2022-07-31T15:45:18.026Z,1.35
2022-07-31T15:47:45.584Z,1.35
2022-07-31T15:50:14.425Z,1.30
2022-07-31T15:52:42.814Z,1.50
2022-07-31T15:55:09.915Z,1.58
2022-07-31T15:57:37.168Z,1.40
2022-07-31T16:00:06.731Z,1.37
2022-07-31T16:02:33.815Z,1.20
2022-07-31T16:05:11.274Z,1.60
2022-07-31T16:08:33.190Z,1.30
2022-07-31T16:10:27.498Z,1.67
2022-07-31T16:12:57.436Z,1.52
2022-07-31T16:15:24.434Z,1.42
2022-07-31T16:17:53.405Z,1.50
2022-07-31T16:20:26.271Z,1.80
2022-07-31T16:22:55.582Z,1.40
2022-07-31T16:25:22.473Z,1.50
2022-07-31T16:27:50.087Z,1.40
2022-07-31T16:30:16.903Z,2.13
2022-07-31T16:32:43.761Z,1.58
2022-07-31T16:35:11.128Z,1.70
2022-07-31T16:37:50.109Z,1.40
2022-07-31T16:40:30.683Z,1.33
2022-07-31T16:43:47.276Z,2.30
2022-07-31T16:46:13.243Z,1.33
2022-07-31T16:48:40.579Z,1.30
2022-07-31T16:51:07.667Z,34.73
2022-07-31T16:54:11.198Z,28.55
2022-07-31T16:56:21.283Z,5.53
2022-07-31T16:58:52.614Z,4.32
2022-07-31T17:01:58.351Z,2.58
2022-07-31T17:04:11.068Z,2.10
2022-07-31T17:06:38.336Z,2.23
2022-07-31T17:09:17.282Z,1.70
2022-07-31T17:11:48.978Z,1.40
2022-07-31T17:14:17.341Z,1.58
2022-07-31T17:16:48.107Z,1.40
2022-07-31T17:19:42.332Z,1.38
2022-07-31T17:22:07.489Z,1.00
2022-07-31T17:24:38.077Z,1.25
2022-07-31T17:27:29.895Z,1.42
2022-07-31T17:29:57.804Z,1.20
2022-07-31T17:32:24.560Z,1.08
2022-07-31T17:34:51.387Z,3.30
2022-07-31T17:37:19.410Z,10.60
2022-07-31T17:39:46.784Z,13.07
2022-07-31T17:42:14.899Z,13.95
2022-07-31T17:44:48.952Z,10.10
2022-07-31T17:47:20.320Z,5.40
2022-07-31T17:49:47.435Z,4.70
2022-07-31T17:52:15.186Z,3.53
2022-07-31T17:54:45.181Z,3.88
2022-07-31T17:57:12.328Z,2.60
2022-07-31T17:59:39.433Z,3.10
2022-07-31T18:02:09.716Z,2.80
2022-07-31T18:04:38.763Z,2.20
2022-07-31T18:07:07.632Z,2.10
2022-07-31T18:09:39.169Z,2.20
2022-07-31T18:12:06.682Z,3.67
2022-07-31T18:14:34.783Z,3.05
2022-07-31T18:17:02.080Z,2.55
2022-07-31T18:19:28.881Z,1.85
2022-07-31T18:21:56.190Z,2.47
2022-07-31T18:24:23.284Z,1.80
2022-07-31T18:26:50.752Z,1.85
2022-07-31T18:29:17.935Z,1.88
2022-07-31T18:31:44.805Z,1.67
2022-07-31T18:34:12.803Z,1.90
2022-07-31T18:36:40.417Z,1.65
2022-07-31T18:39:07.955Z,1.70
2022-07-31T18:41:35.264Z,1.75
2022-07-31T18:44:02.217Z,1.65
2022-07-31T18:46:29.101Z,1.85
2022-07-31T18:48:57.120Z,1.23
2022-07-31T18:51:26.294Z,1.40
2022-07-31T18:53:54.443Z,1.55
2022-07-31T18:56:26.096Z,1.10
2022-07-31T18:58:53.858Z,1.47
2022-07-31T19:01:22.187Z,1.25
2022-07-31T19:03:49.341Z,1.02
2022-07-31T19:06:17.517Z,1.20
2022-07-31T19:08:46.253Z,1.43
2022-07-31T19:11:13.109Z,1.50
2022-07-31T19:13:42.391Z,1.25
2022-07-31T19:16:09.187Z,1.17
2022-07-31T19:18:36.679Z,1.20
2022-07-31T19:21:22.967Z,1.03
2022-07-31T19:23:51.015Z,1.10
2022-07-31T19:26:17.817Z,1.20
2022-07-31T19:28:44.726Z,1.17
2022-07-31T19:31:13.441Z,1.30
2022-07-31T19:33:41.657Z,1.00
2022-07-31T19:36:10.630Z,1.20
2022-07-31T19:38:38.158Z,1.30
2022-07-31T19:41:05.065Z,1.08
2022-07-31T19:43:33.291Z,1.30
2022-07-31T19:46:11.953Z,1.00
2022-07-31T19:48:46.960Z,0.97
2022-07-31T19:51:14.273Z,1.17
2022-07-31T19:53:41.868Z,0.90
2022-07-31T19:56:10.304Z,1.30
2022-07-31T19:58:41.528Z,0.90
2022-07-31T20:01:09.691Z,1.20
2022-07-31T20:03:36.608Z,1.17
2022-07-31T20:06:05.018Z,1.03
2022-07-31T20:08:34.132Z,0.90
2022-07-31T20:11:04.328Z,1.20
2022-07-31T20:13:35.226Z,0.77
2022-07-31T20:16:02.036Z,1.27
2022-07-31T20:18:30.805Z,0.90
2022-07-31T20:21:03.939Z,1.20
2022-07-31T20:23:31.184Z,1.30
2022-07-31T20:25:58.641Z,1.10
2022-07-31T20:28:26.951Z,1.10
2022-07-31T20:30:53.835Z,1.20
2022-07-31T20:33:20.986Z,1.13
2022-07-31T20:35:50.122Z,1.00
2022-07-31T20:38:21.390Z,1.00
2022-07-31T20:40:55.704Z,1.40
2022-07-31T20:43:27.467Z,1.27
2022-07-31T20:45:57.451Z,1.30
2022-07-31T20:48:31.166Z,1.23
2022-07-31T20:51:02.096Z,1.30
2022-07-31T20:53:28.979Z,1.30
2022-07-31T20:55:56.079Z,1.30
2022-07-31T20:58:23.309Z,1.20
2022-07-31T21:00:50.648Z,0.90
2022-07-31T21:03:17.797Z,1.50
2022-07-31T21:05:47.866Z,1.20
2022-07-31T21:08:14.911Z,1.50
2022-07-31T21:10:42.262Z,1.23
2022-07-31T21:13:10.854Z,1.40
2022-07-31T21:15:44.158Z,1.33
2022-07-31T21:18:17.116Z,1.77
2022-07-31T21:20:51.324Z,1.47
2022-07-31T21:23:23.541Z,1.13
2022-07-31T21:25:54.379Z,1.40
2022-07-31T21:28:21.835Z,1.37
2022-07-31T21:30:50.345Z,1.20
2022-07-31T21:33:18.655Z,1.30
2022-07-31T21:35:46.788Z,1.40
2022-07-31T21:38:26.128Z,1.50
2022-07-31T21:40:53.963Z,1.13
2022-07-31T21:43:22.683Z,1.43
2022-07-31T21:45:57.699Z,1.38
2022-07-31T21:48:30.287Z,1.40
2022-07-31T21:50:57.929Z,1.67
2022-07-31T21:53:25.211Z,1.57
2022-07-31T21:55:53.348Z,1.60
2022-07-31T21:58:21.519Z,1.40
2022-07-31T22:00:49.624Z,1.67
2022-07-31T22:03:16.630Z,1.47
2022-07-31T22:06:04.068Z,1.70
2022-07-31T22:08:32.330Z,1.50
2022-07-31T22:10:59.120Z,1.97
2022-07-31T22:13:27.562Z,1.77
2022-07-31T22:15:59.987Z,1.67
2022-07-31T22:18:28.528Z,1.60
2022-07-31T22:20:55.473Z,1.67
2022-07-31T22:23:23.167Z,1.57
2022-07-31T22:25:50.287Z,1.57
2022-07-31T22:28:21.572Z,1.50
2022-07-31T22:30:50.084Z,1.50
2022-07-31T22:33:16.993Z,1.83
2022-07-31T22:35:44.095Z,1.60
2022-07-31T22:38:12.452Z,1.73
2022-07-31T22:40:39.703Z,1.60
2022-07-31T22:44:10.529Z,1.67
2022-07-31T22:46:02.377Z,1.77
2022-07-31T22:48:29.542Z,1.77
2022-07-31T22:50:56.879Z,1.60
2022-07-31T22:53:24.302Z,1.80
2022-07-31T22:55:53.159Z,1.60
2022-07-31T22:58:21.254Z,1.80
2022-07-31T23:00:48.509Z,1.80
2022-07-31T23:03:16.449Z,1.80
2022-07-31T23:06:03.558Z,1.70
2022-07-31T23:08:33.109Z,1.70
2022-07-31T23:11:01.064Z,1.50
2022-07-31T23:13:29.070Z,1.80
2022-07-31T23:15:56.242Z,1.60
2022-07-31T23:18:23.139Z,1.70
2022-07-31T23:20:49.921Z,2.00
2022-07-31T23:23:16.683Z,1.70
2022-07-31T23:25:43.460Z,1.57
2022-07-31T23:28:10.258Z,1.83
2022-07-31T23:30:38.543Z,1.40
2022-07-31T23:33:05.336Z,2.00
2022-07-31T23:35:32.464Z,1.80
2022-07-31T23:37:59.506Z,1.90
2022-07-31T23:40:26.303Z,1.70
2022-07-31T23:42:53.745Z,1.60
2022-07-31T23:45:20.575Z,1.60
2022-07-31T23:47:48.365Z,1.60
2022-07-31T23:50:16.219Z,1.90
2022-07-31T23:52:43.790Z,1.77
2022-07-31T23:55:10.616Z,1.90
2022-07-31T23:57:38.015Z,1.80
